sensor_id;sensor_type;location;lat;lon;timestamp;P1;durP1;ratioP1;P2;durP2;ratioP2
7247;SDS011;3665;51.034;13.642;2024-02-21T00:02:50;8.17;;;3.67;;
7247;SDS011;3665;51.034;13.642;2024-02-21T00:07:42;11.03;;;3.97;;
7247;SDS011;3665;51.034;13.642;2024-02-21T00:12:27;5.83;;;2.80;;
7247;SDS011;3665;51.034;13.642;2024-02-21T00:17:15;6.70;;;3.23;;
7247;SDS011;3665;51.034;13.642;2024-02-21T00:22:07;8.83;;;3.60;;
7247;SDS011;3665;51.034;13.642;2024-02-21T00:26:54;7.33;;;3.37;;
7247;SDS011;3665;51.034;13.642;2024-02-21T00:31:37;7.60;;;3.47;;
7247;SDS011;3665;51.034;13.642;2024-02-21T00:36:32;8.20;;;3.00;;
7247;SDS011;3665;51.034;13.642;2024-02-21T00:41:16;7.53;;;4.27;;
7247;SDS011;3665;51.034;13.642;2024-02-21T00:46:00;8.33;;;3.27;;
7247;SDS011;3665;51.034;13.642;2024-02-21T00:50:55;11.57;;;4.17;;
7247;SDS011;3665;51.034;13.642;2024-02-21T00:55:43;7.07;;;3.20;;
7247;SDS011;3665;51.034;13.642;2024-02-21T01:00:30;9.47;;;3.77;;
7247;SDS011;3665;51.034;13.642;2024-02-21T01:05:20;7.23;;;3.07;;
7247;SDS011;3665;51.034;13.642;2024-02-21T01:10:07;11.60;;;3.57;;
7247;SDS011;3665;51.034;13.642;2024-02-21T01:20:01;8.10;;;3.43;;
7247;SDS011;3665;51.034;13.642;2024-02-21T01:24:47;8.80;;;3.47;;
7247;SDS011;3665;51.034;13.642;2024-02-21T01:29:33;8.73;;;4.03;;
7247;SDS011;3665;51.034;13.642;2024-02-21T01:39:43;6.53;;;3.40;;
7247;SDS011;3665;51.034;13.642;2024-02-21T01:44:27;11.93;;;3.83;;
7247;SDS011;3665;51.034;13.642;2024-02-21T01:49:15;10.37;;;2.73;;
7247;SDS011;3665;51.034;13.642;2024-02-21T01:54:06;7.57;;;3.70;;
7247;SDS011;3665;51.034;13.642;2024-02-21T01:58:50;9.40;;;3.43;;
7247;SDS011;3665;51.034;13.642;2024-02-21T02:03:40;6.33;;;3.07;;
7247;SDS011;3665;51.034;13.642;2024-02-21T02:08:30;8.70;;;3.97;;
7247;SDS011;3665;51.034;13.642;2024-02-21T02:13:19;6.70;;;2.70;;
7247;SDS011;3665;51.034;13.642;2024-02-21T02:18:09;9.77;;;3.20;;
7247;SDS011;3665;51.034;13.642;2024-02-21T02:22:54;9.33;;;3.67;;
7247;SDS011;3665;51.034;13.642;2024-02-21T02:27:43;8.60;;;4.20;;
7247;SDS011;3665;51.034;13.642;2024-02-21T02:32:30;6.50;;;3.10;;
7247;SDS011;3665;51.034;13.642;2024-02-21T02:37:19;8.60;;;3.37;;
7247;SDS011;3665;51.034;13.642;2024-02-21T02:42:06;8.03;;;3.80;;
7247;SDS011;3665;51.034;13.642;2024-02-21T02:52:02;10.17;;;3.43;;
7247;SDS011;3665;51.034;13.642;2024-02-21T02:56:46;9.60;;;3.43;;
7247;SDS011;3665;51.034;13.642;2024-02-21T03:01:32;9.30;;;3.67;;
7247;SDS011;3665;51.034;13.642;2024-02-21T03:06:25;9.93;;;4.37;;
7247;SDS011;3665;51.034;13.642;2024-02-21T03:11:10;5.30;;;3.53;;
7247;SDS011;3665;51.034;13.642;2024-02-21T03:15:54;6.87;;;2.77;;
7247;SDS011;3665;51.034;13.642;2024-02-21T03:20:39;8.70;;;3.30;;
7247;SDS011;3665;51.034;13.642;2024-02-21T03:25:33;10.17;;;3.20;;
7247;SDS011;3665;51.034;13.642;2024-02-21T03:30:21;6.87;;;3.10;;
7247;SDS011;3665;51.034;13.642;2024-02-21T03:35:05;9.63;;;3.33;;
7247;SDS011;3665;51.034;13.642;2024-02-21T03:39:50;12.40;;;3.63;;
7247;SDS011;3665;51.034;13.642;2024-02-21T03:44:46;12.50;;;3.50;;
7247;SDS011;3665;51.034;13.642;2024-02-21T03:49:35;9.03;;;3.70;;
7247;SDS011;3665;51.034;13.642;2024-02-21T03:54:21;8.17;;;3.13;;
7247;SDS011;3665;51.034;13.642;2024-02-21T03:59:04;11.43;;;3.53;;
7247;SDS011;3665;51.034;13.642;2024-02-21T04:16:49;8.67;;;3.77;;
7247;SDS011;3665;51.034;13.642;2024-02-21T04:46:32;9.77;;;4.03;;
7247;SDS011;3665;51.034;13.642;2024-02-21T04:52:49;13.07;;;4.53;;
7247;SDS011;3665;51.034;13.642;2024-02-21T04:58:44;6.63;;;3.53;;
7247;SDS011;3665;51.034;13.642;2024-02-21T05:30:18;5.73;;;3.23;;
7247;SDS011;3665;51.034;13.642;2024-02-21T05:43:41;7.13;;;3.63;;
7247;SDS011;3665;51.034;13.642;2024-02-21T06:23:54;10.17;;;3.93;;
7247;SDS011;3665;51.034;13.642;2024-02-21T06:56:43;8.07;;;3.27;;
7247;SDS011;3665;51.034;13.642;2024-02-21T07:02:00;9.17;;;3.57;;
7247;SDS011;3665;51.034;13.642;2024-02-21T07:34:29;6.43;;;3.10;;
7247;SDS011;3665;51.034;13.642;2024-02-21T07:41:31;10.70;;;4.17;;
7247;SDS011;3665;51.034;13.642;2024-02-21T08:40:22;7.20;;;3.97;;
7247;SDS011;3665;51.034;13.642;2024-02-21T08:58:17;6.53;;;3.60;;
7247;SDS011;3665;51.034;13.642;2024-02-21T09:04:11;9.30;;;3.50;;
7247;SDS011;3665;51.034;13.642;2024-02-21T09:10:43;8.10;;;3.93;;
7247;SDS011;3665;51.034;13.642;2024-02-21T09:15:48;6.47;;;3.77;;
7247;SDS011;3665;51.034;13.642;2024-02-21T09:59:37;7.30;;;4.23;;
7247;SDS011;3665;51.034;13.642;2024-02-21T10:05:48;7.10;;;4.27;;
7247;SDS011;3665;51.034;13.642;2024-02-21T10:11:04;7.47;;;4.07;;
7247;SDS011;3665;51.034;13.642;2024-02-21T10:16:06;7.33;;;3.50;;
7247;SDS011;3665;51.034;13.642;2024-02-21T10:20:59;9.13;;;4.10;;
7247;SDS011;3665;51.034;13.642;2024-02-21T10:25:49;7.83;;;3.30;;
7247;SDS011;3665;51.034;13.642;2024-02-21T10:30:59;7.80;;;3.43;;
7247;SDS011;3665;51.034;13.642;2024-02-21T10:35:48;7.60;;;3.47;;
7247;SDS011;3665;51.034;13.642;2024-02-21T10:40:33;5.27;;;2.87;;
7247;SDS011;3665;51.034;13.642;2024-02-21T10:45:16;7.73;;;3.20;;
7247;SDS011;3665;51.034;13.642;2024-02-21T10:50:08;3.73;;;3.10;;
7247;SDS011;3665;51.034;13.642;2024-02-21T10:54:59;5.07;;;3.47;;
7247;SDS011;3665;51.034;13.642;2024-02-21T10:59:48;8.37;;;3.77;;
7247;SDS011;3665;51.034;13.642;2024-02-21T11:04:32;4.57;;;2.87;;
7247;SDS011;3665;51.034;13.642;2024-02-21T11:09:18;7.70;;;3.87;;
7247;SDS011;3665;51.034;13.642;2024-02-21T11:14:19;5.27;;;2.97;;
7247;SDS011;3665;51.034;13.642;2024-02-21T11:19:09;3.53;;;3.20;;
7247;SDS011;3665;51.034;13.642;2024-02-21T11:24:02;6.20;;;3.50;;
7247;SDS011;3665;51.034;13.642;2024-02-21T11:28:55;5.00;;;3.23;;
7247;SDS011;3665;51.034;13.642;2024-02-21T11:33:43;6.73;;;3.73;;
7247;SDS011;3665;51.034;13.642;2024-02-21T11:38:27;4.73;;;2.90;;
7247;SDS011;3665;51.034;13.642;2024-02-21T11:43:10;4.07;;;3.40;;
7247;SDS011;3665;51.034;13.642;2024-02-21T11:48:03;5.00;;;2.60;;
7247;SDS011;3665;51.034;13.642;2024-02-21T11:52:58;6.10;;;3.00;;
7247;SDS011;3665;51.034;13.642;2024-02-21T11:57:48;4.83;;;2.90;;
7247;SDS011;3665;51.034;13.642;2024-02-21T12:02:44;3.73;;;2.70;;
7247;SDS011;3665;51.034;13.642;2024-02-21T12:07:31;5.23;;;3.17;;
7247;SDS011;3665;51.034;13.642;2024-02-21T12:12:21;4.43;;;2.60;;
7247;SDS011;3665;51.034;13.642;2024-02-21T12:17:06;8.10;;;3.33;;
7247;SDS011;3665;51.034;13.642;2024-02-21T12:21:50;4.90;;;2.63;;
7247;SDS011;3665;51.034;13.642;2024-02-21T12:26:36;2.80;;;2.20;;
7247;SDS011;3665;51.034;13.642;2024-02-21T12:31:33;5.80;;;2.77;;
7247;SDS011;3665;51.034;13.642;2024-02-21T12:36:16;5.13;;;2.53;;
7247;SDS011;3665;51.034;13.642;2024-02-21T12:41:00;4.67;;;2.60;;
7247;SDS011;3665;51.034;13.642;2024-02-21T12:45:57;5.67;;;3.10;;
7247;SDS011;3665;51.034;13.642;2024-02-21T12:55:31;3.77;;;2.60;;
7247;SDS011;3665;51.034;13.642;2024-02-21T13:00:15;4.10;;;2.80;;
7247;SDS011;3665;51.034;13.642;2024-02-21T13:05:01;5.57;;;2.70;;
7247;SDS011;3665;51.034;13.642;2024-02-21T13:09:55;6.30;;;2.80;;
7247;SDS011;3665;51.034;13.642;2024-02-21T13:14:39;4.80;;;2.73;;
7247;SDS011;3665;51.034;13.642;2024-02-21T13:19:31;5.80;;;3.00;;
7247;SDS011;3665;51.034;13.642;2024-02-21T13:24:21;6.30;;;3.00;;
7247;SDS011;3665;51.034;13.642;2024-02-21T13:29:07;5.00;;;2.37;;
7247;SDS011;3665;51.034;13.642;2024-02-21T13:33:51;5.30;;;2.70;;
7247;SDS011;3665;51.034;13.642;2024-02-21T13:38:46;8.07;;;2.80;;
7247;SDS011;3665;51.034;13.642;2024-02-21T13:43:31;4.60;;;2.40;;
7247;SDS011;3665;51.034;13.642;2024-02-21T13:48:19;5.67;;;2.50;;
7247;SDS011;3665;51.034;13.642;2024-02-21T13:53:03;4.43;;;2.30;;
7247;SDS011;3665;51.034;13.642;2024-02-21T13:57:55;4.33;;;2.27;;
7247;SDS011;3665;51.034;13.642;2024-02-21T14:02:45;4.00;;;1.97;;
7247;SDS011;3665;51.034;13.642;2024-02-21T14:07:31;3.70;;;1.83;;
7247;SDS011;3665;51.034;13.642;2024-02-21T14:12:15;4.37;;;2.43;;
7247;SDS011;3665;51.034;13.642;2024-02-21T14:17:03;4.07;;;2.13;;
7247;SDS011;3665;51.034;13.642;2024-02-21T14:21:49;7.43;;;2.40;;
7247;SDS011;3665;51.034;13.642;2024-02-21T14:26:47;4.23;;;1.97;;
7247;SDS011;3665;51.034;13.642;2024-02-21T14:31:31;3.27;;;2.00;;
7247;SDS011;3665;51.034;13.642;2024-02-21T14:36:15;2.87;;;1.83;;
7247;SDS011;3665;51.034;13.642;2024-02-21T14:41:07;3.37;;;2.30;;
7247;SDS011;3665;51.034;13.642;2024-02-21T14:45:55;2.77;;;1.90;;
7247;SDS011;3665;51.034;13.642;2024-02-21T14:50:39;5.23;;;1.70;;
7247;SDS011;3665;51.034;13.642;2024-02-21T14:55:24;4.30;;;2.03;;
7247;SDS011;3665;51.034;13.642;2024-02-21T15:00:12;3.73;;;1.80;;
7247;SDS011;3665;51.034;13.642;2024-02-21T15:05:02;4.50;;;2.07;;
7247;SDS011;3665;51.034;13.642;2024-02-21T15:09:54;3.47;;;2.13;;
7247;SDS011;3665;51.034;13.642;2024-02-21T15:14:38;3.13;;;2.03;;
7247;SDS011;3665;51.034;13.642;2024-02-21T15:19:25;5.53;;;2.00;;
7247;SDS011;3665;51.034;13.642;2024-02-21T15:24:11;2.80;;;1.80;;
7247;SDS011;3665;51.034;13.642;2024-02-21T15:28:55;3.67;;;1.90;;
7247;SDS011;3665;51.034;13.642;2024-02-21T15:33:39;4.97;;;2.57;;
7247;SDS011;3665;51.034;13.642;2024-02-21T15:38:23;5.37;;;3.27;;
7247;SDS011;3665;51.034;13.642;2024-02-21T15:43:19;6.00;;;2.10;;
7247;SDS011;3665;51.034;13.642;2024-02-21T15:48:03;4.53;;;2.00;;
7247;SDS011;3665;51.034;13.642;2024-02-21T15:52:53;4.47;;;2.40;;
7247;SDS011;3665;51.034;13.642;2024-02-21T15:57:42;3.80;;;1.87;;
7247;SDS011;3665;51.034;13.642;2024-02-21T16:02:27;5.43;;;2.10;;
7247;SDS011;3665;51.034;13.642;2024-02-21T16:07:20;2.67;;;1.97;;
7247;SDS011;3665;51.034;13.642;2024-02-21T16:12:04;3.60;;;2.20;;
7247;SDS011;3665;51.034;13.642;2024-02-21T16:16:52;6.03;;;2.33;;
7247;SDS011;3665;51.034;13.642;2024-02-21T16:21:40;4.53;;;2.90;;
7247;SDS011;3665;51.034;13.642;2024-02-21T16:26:24;8.03;;;4.53;;
7247;SDS011;3665;51.034;13.642;2024-02-21T16:31:16;6.73;;;3.43;;
7247;SDS011;3665;51.034;13.642;2024-02-21T16:36:03;7.20;;;3.03;;
7247;SDS011;3665;51.034;13.642;2024-02-21T16:46:14;3.40;;;2.33;;
7247;SDS011;3665;51.034;13.642;2024-02-21T16:51:00;4.27;;;2.20;;
7247;SDS011;3665;51.034;13.642;2024-02-21T16:55:49;2.30;;;1.73;;
7247;SDS011;3665;51.034;13.642;2024-02-21T17:00:33;2.73;;;1.90;;
7247;SDS011;3665;51.034;13.642;2024-02-21T17:05:24;4.97;;;2.00;;
7247;SDS011;3665;51.034;13.642;2024-02-21T17:10:09;2.57;;;1.80;;
7247;SDS011;3665;51.034;13.642;2024-02-21T19:55:33;18.57;;;7.33;;
7247;SDS011;3665;51.034;13.642;2024-02-21T20:01:28;11.80;;;5.90;;
7247;SDS011;3665;51.034;13.642;2024-02-21T20:14:02;7.13;;;4.17;;
7247;SDS011;3665;51.034;13.642;2024-02-21T20:20:09;4.83;;;2.60;;
7247;SDS011;3665;51.034;13.642;2024-02-21T21:18:36;3.60;;;2.00;;
7247;SDS011;3665;51.034;13.642;2024-02-21T21:57:59;1.77;;;1.67;;
7247;SDS011;3665;51.034;13.642;2024-02-21T22:04:51;1.77;;;1.10;;
7247;SDS011;3665;51.034;13.642;2024-02-21T22:10:15;1.73;;;1.57;;
7247;SDS011;3665;51.034;13.642;2024-02-21T22:42:33;1.73;;;1.20;;
7247;SDS011;3665;51.034;13.642;2024-02-21T23:00:25;0.87;;;0.80;;
7247;SDS011;3665;51.034;13.642;2024-02-21T23:05:26;1.43;;;1.07;;
7247;SDS011;3665;51.034;13.642;2024-02-21T23:11:58;1.60;;;0.97;;
7247;SDS011;3665;51.034;13.642;2024-02-21T23:18:02;0.80;;;0.80;;
7247;SDS011;3665;51.034;13.642;2024-02-21T23:23:53;3.33;;;0.90;;
7247;SDS011;3665;51.034;13.642;2024-02-21T23:28:40;1.23;;;1.07;;
7247;SDS011;3665;51.034;13.642;2024-02-21T23:33:26;1.53;;;0.80;;
7247;SDS011;3665;51.034;13.642;2024-02-21T23:38:16;0.80;;;0.80;;
7247;SDS011;3665;51.034;13.642;2024-02-21T23:43:02;0.67;;;0.63;;
7247;SDS011;3665;51.034;13.642;2024-02-21T23:47:46;1.03;;;0.90;;
7247;SDS011;3665;51.034;13.642;2024-02-21T23:52:41;1.47;;;0.80;;
7247;SDS011;3665;51.034;13.642;2024-02-21T23:57:27;0.60;;;0.60;;
